sensor_id;sensor_type;location;lat;lon;timestamp;P1;durP1;ratioP1;P2;durP2;ratioP2
29478;SDS011;16437;41.836;23.480;2022-09-20T00:02:50;1.15;;;0.88;;
29478;SDS011;16437;41.836;23.480;2022-09-20T00:08:17;1.10;;;0.80;;
29478;SDS011;16437;41.836;23.480;2022-09-20T00:13:44;2.37;;;1.00;;
29478;SDS011;16437;41.836;23.480;2022-09-20T00:19:17;1.90;;;1.00;;
29478;SDS011;16437;41.836;23.480;2022-09-20T00:24:41;1.20;;;0.90;;
29478;SDS011;16437;41.836;23.480;2022-09-20T00:30:09;0.95;;;0.78;;
29478;SDS011;16437;41.836;23.480;2022-09-20T00:35:36;2.05;;;1.00;;
29478;SDS011;16437;41.836;23.480;2022-09-20T00:41:03;1.72;;;0.90;;
29478;SDS011;16437;41.836;23.480;2022-09-20T00:46:34;1.40;;;0.75;;
29478;SDS011;16437;41.836;23.480;2022-09-20T00:52:02;1.55;;;0.95;;
29478;SDS011;16437;41.836;23.480;2022-09-20T00:57:29;1.47;;;1.10;;
29478;SDS011;16437;41.836;23.480;2022-09-20T01:02:58;1.67;;;1.00;;
29478;SDS011;16437;41.836;23.480;2022-09-20T01:08:26;1.47;;;0.68;;
29478;SDS011;16437;41.836;23.480;2022-09-20T01:13:52;1.45;;;0.75;;
29478;SDS011;16437;41.836;23.480;2022-09-20T01:19:25;1.25;;;0.90;;
29478;SDS011;16437;41.836;23.480;2022-09-20T01:24:59;1.50;;;0.85;;
29478;SDS011;16437;41.836;23.480;2022-09-20T01:30:37;1.25;;;0.70;;
29478;SDS011;16437;41.836;23.480;2022-09-20T01:36:03;1.40;;;0.90;;
29478;SDS011;16437;41.836;23.480;2022-09-20T01:41:35;1.10;;;0.82;;
29478;SDS011;16437;41.836;23.480;2022-09-20T01:47:08;2.20;;;1.00;;
29478;SDS011;16437;41.836;23.480;2022-09-20T02:10:14;1.00;;;0.60;;
29478;SDS011;16437;41.836;23.480;2022-09-20T02:16:04;1.17;;;0.70;;
29478;SDS011;16437;41.836;23.480;2022-09-20T02:27:33;1.00;;;0.65;;
29478;SDS011;16437;41.836;23.480;2022-09-20T03:07:45;1.40;;;0.68;;
29478;SDS011;16437;41.836;23.480;2022-09-20T03:36:28;1.25;;;0.70;;
29478;SDS011;16437;41.836;23.480;2022-09-20T03:48:15;1.20;;;0.70;;
29478;SDS011;16437;41.836;23.480;2022-09-20T04:05:23;1.15;;;0.70;;
29478;SDS011;16437;41.836;23.480;2022-09-20T04:22:09;0.60;;;0.60;;
29478;SDS011;16437;41.836;23.480;2022-09-20T04:27:58;0.60;;;0.47;;
29478;SDS011;16437;41.836;23.480;2022-09-20T04:33:30;0.98;;;0.53;;
29478;SDS011;16437;41.836;23.480;2022-09-20T05:25:38;0.60;;;0.50;;
29478;SDS011;16437;41.836;23.480;2022-09-20T05:31:20;0.88;;;0.50;;
29478;SDS011;16437;41.836;23.480;2022-09-20T05:48:13;0.95;;;0.45;;
29478;SDS011;16437;41.836;23.480;2022-09-20T05:59:38;0.45;;;0.40;;
29478;SDS011;16437;41.836;23.480;2022-09-20T06:05:16;1.47;;;0.60;;
29478;SDS011;16437;41.836;23.480;2022-09-20T06:17:01;0.47;;;0.40;;
29478;SDS011;16437;41.836;23.480;2022-09-20T06:22:29;0.40;;;0.40;;
29478;SDS011;16437;41.836;23.480;2022-09-20T06:33:53;14.25;;;6.40;;
29478;SDS011;16437;41.836;23.480;2022-09-20T06:45:22;11.75;;;4.60;;
29478;SDS011;16437;41.836;23.480;2022-09-20T06:50:48;14.03;;;4.72;;
29478;SDS011;16437;41.836;23.480;2022-09-20T06:56:17;11.85;;;3.90;;
29478;SDS011;16437;41.836;23.480;2022-09-20T07:01:44;16.20;;;4.10;;
29478;SDS011;16437;41.836;23.480;2022-09-20T07:07:11;13.93;;;3.33;;
29478;SDS011;16437;41.836;23.480;2022-09-20T07:12:43;12.98;;;3.40;;
29478;SDS011;16437;41.836;23.480;2022-09-20T07:18:10;8.95;;;2.35;;
29478;SDS011;16437;41.836;23.480;2022-09-20T07:23:36;12.00;;;2.72;;
29478;SDS011;16437;41.836;23.480;2022-09-20T07:29:02;10.60;;;2.47;;
29478;SDS011;16437;41.836;23.480;2022-09-20T07:34:30;12.45;;;2.77;;
29478;SDS011;16437;41.836;23.480;2022-09-20T07:39:57;12.55;;;2.35;;
29478;SDS011;16437;41.836;23.480;2022-09-20T07:45:23;9.88;;;2.08;;
29478;SDS011;16437;41.836;23.480;2022-09-20T07:50:54;8.78;;;2.10;;
29478;SDS011;16437;41.836;23.480;2022-09-20T07:56:22;11.45;;;1.67;;
29478;SDS011;16437;41.836;23.480;2022-09-20T08:01:49;25.70;;;2.62;;
29478;SDS011;16437;41.836;23.480;2022-09-20T08:07:15;17.82;;;2.60;;
29478;SDS011;16437;41.836;23.480;2022-09-20T08:12:42;12.68;;;2.08;;
29478;SDS011;16437;41.836;23.480;2022-09-20T08:18:08;16.75;;;2.25;;
29478;SDS011;16437;41.836;23.480;2022-09-20T08:23:39;15.10;;;1.70;;
29478;SDS011;16437;41.836;23.480;2022-09-20T08:29:07;18.85;;;2.45;;
29478;SDS011;16437;41.836;23.480;2022-09-20T08:34:34;10.65;;;2.10;;
29478;SDS011;16437;41.836;23.480;2022-09-20T08:40:01;17.48;;;2.20;;
29478;SDS011;16437;41.836;23.480;2022-09-20T08:45:28;8.30;;;1.70;;
29478;SDS011;16437;41.836;23.480;2022-09-20T08:50:55;10.90;;;2.00;;
29478;SDS011;16437;41.836;23.480;2022-09-20T08:56:21;10.18;;;1.95;;
29478;SDS011;16437;41.836;23.480;2022-09-20T09:01:51;10.55;;;1.35;;
29478;SDS011;16437;41.836;23.480;2022-09-20T09:07:18;11.33;;;1.70;;
29478;SDS011;16437;41.836;23.480;2022-09-20T09:12:46;12.43;;;1.45;;
29478;SDS011;16437;41.836;23.480;2022-09-20T09:18:14;9.33;;;1.60;;
29478;SDS011;16437;41.836;23.480;2022-09-20T09:23:48;12.25;;;2.62;;
29478;SDS011;16437;41.836;23.480;2022-09-20T09:29:16;7.90;;;1.90;;
29478;SDS011;16437;41.836;23.480;2022-09-20T09:34:45;8.73;;;1.60;;
29478;SDS011;16437;41.836;23.480;2022-09-20T09:40:16;20.88;;;2.47;;
29478;SDS011;16437;41.836;23.480;2022-09-20T09:45:43;6.05;;;1.30;;
29478;SDS011;16437;41.836;23.480;2022-09-20T09:51:10;7.03;;;1.57;;
29478;SDS011;16437;41.836;23.480;2022-09-20T09:56:51;4.28;;;1.35;;
29478;SDS011;16437;41.836;23.480;2022-09-20T10:02:21;10.72;;;1.32;;
29478;SDS011;16437;41.836;23.480;2022-09-20T10:08:09;5.28;;;1.35;;
29478;SDS011;16437;41.836;23.480;2022-09-20T10:19:47;4.05;;;1.12;;
29478;SDS011;16437;41.836;23.480;2022-09-20T10:25:19;1.98;;;0.95;;
29478;SDS011;16437;41.836;23.480;2022-09-20T10:30:55;3.80;;;0.80;;
29478;SDS011;16437;41.836;23.480;2022-09-20T10:36:41;5.47;;;1.00;;
29478;SDS011;16437;41.836;23.480;2022-09-20T10:54:09;1.90;;;0.70;;
29478;SDS011;16437;41.836;23.480;2022-09-20T11:16:52;7.15;;;0.90;;
29478;SDS011;16437;41.836;23.480;2022-09-20T11:22:31;4.60;;;0.93;;
29478;SDS011;16437;41.836;23.480;2022-09-20T11:28:06;8.85;;;0.90;;
29478;SDS011;16437;41.836;23.480;2022-09-20T11:33:36;2.58;;;0.62;;
29478;SDS011;16437;41.836;23.480;2022-09-20T11:39:08;7.15;;;0.90;;
29478;SDS011;16437;41.836;23.480;2022-09-20T11:44:42;4.97;;;0.82;;
29478;SDS011;16437;41.836;23.480;2022-09-20T12:01:54;2.40;;;0.60;;
29478;SDS011;16437;41.836;23.480;2022-09-20T12:13:07;2.92;;;0.60;;
29478;SDS011;16437;41.836;23.480;2022-09-20T12:19:00;3.42;;;0.60;;
29478;SDS011;16437;41.836;23.480;2022-09-20T12:24:17;1.55;;;0.60;;
29478;SDS011;16437;41.836;23.480;2022-09-20T12:41:09;8.23;;;1.02;;
29478;SDS011;16437;41.836;23.480;2022-09-20T12:46:41;7.55;;;1.10;;
29478;SDS011;16437;41.836;23.480;2022-09-20T12:52:54;11.38;;;1.35;;
29478;SDS011;16437;41.836;23.480;2022-09-20T13:03:47;11.00;;;1.27;;
29478;SDS011;16437;41.836;23.480;2022-09-20T13:09:14;6.97;;;1.10;;
29478;SDS011;16437;41.836;23.480;2022-09-20T13:14:41;6.12;;;1.10;;
29478;SDS011;16437;41.836;23.480;2022-09-20T13:20:21;3.55;;;0.90;;
29478;SDS011;16437;41.836;23.480;2022-09-20T13:25:44;7.47;;;1.50;;
29478;SDS011;16437;41.836;23.480;2022-09-20T13:31:22;3.35;;;1.12;;
29478;SDS011;16437;41.836;23.480;2022-09-20T13:36:59;5.03;;;0.80;;
29478;SDS011;16437;41.836;23.480;2022-09-20T13:42:27;2.50;;;0.65;;
29478;SDS011;16437;41.836;23.480;2022-09-20T13:47:54;7.15;;;0.70;;
29478;SDS011;16437;41.836;23.480;2022-09-20T13:53:22;4.85;;;1.00;;
29478;SDS011;16437;41.836;23.480;2022-09-20T13:58:50;2.60;;;0.80;;
29478;SDS011;16437;41.836;23.480;2022-09-20T14:04:20;8.40;;;0.90;;
29478;SDS011;16437;41.836;23.480;2022-09-20T14:09:47;0.88;;;0.45;;
29478;SDS011;16437;41.836;23.480;2022-09-20T14:15:14;2.50;;;0.70;;
29478;SDS011;16437;41.836;23.480;2022-09-20T14:20:41;2.33;;;0.70;;
29478;SDS011;16437;41.836;23.480;2022-09-20T14:26:21;5.17;;;0.95;;
29478;SDS011;16437;41.836;23.480;2022-09-20T14:31:46;1.98;;;0.70;;
29478;SDS011;16437;41.836;23.480;2022-09-20T14:37:20;3.60;;;0.88;;
29478;SDS011;16437;41.836;23.480;2022-09-20T14:53:49;1.87;;;0.65;;
29478;SDS011;16437;41.836;23.480;2022-09-20T15:04:50;1.20;;;0.53;;
29478;SDS011;16437;41.836;23.480;2022-09-20T15:10:22;5.15;;;0.60;;
29478;SDS011;16437;41.836;23.480;2022-09-20T15:15:49;2.47;;;0.70;;
29478;SDS011;16437;41.836;23.480;2022-09-20T15:21:17;3.98;;;0.70;;
29478;SDS011;16437;41.836;23.480;2022-09-20T15:26:44;1.92;;;0.55;;
29478;SDS011;16437;41.836;23.480;2022-09-20T15:32:10;2.30;;;0.62;;
29478;SDS011;16437;41.836;23.480;2022-09-20T15:37:37;1.85;;;0.50;;
29478;SDS011;16437;41.836;23.480;2022-09-20T15:43:03;0.82;;;0.50;;
29478;SDS011;16437;41.836;23.480;2022-09-20T15:48:31;1.75;;;0.70;;
29478;SDS011;16437;41.836;23.480;2022-09-20T15:54:01;0.62;;;0.50;;
29478;SDS011;16437;41.836;23.480;2022-09-20T15:59:30;0.85;;;0.47;;
29478;SDS011;16437;41.836;23.480;2022-09-20T16:04:59;1.20;;;0.50;;
29478;SDS011;16437;41.836;23.480;2022-09-20T16:10:25;0.53;;;0.50;;
29478;SDS011;16437;41.836;23.480;2022-09-20T16:15:53;1.02;;;0.50;;
29478;SDS011;16437;41.836;23.480;2022-09-20T16:21:23;0.95;;;0.50;;
29478;SDS011;16437;41.836;23.480;2022-09-20T16:26:50;0.90;;;0.50;;
29478;SDS011;16437;41.836;23.480;2022-09-20T16:32:16;1.12;;;0.50;;
29478;SDS011;16437;41.836;23.480;2022-09-20T16:37:43;0.60;;;0.50;;
29478;SDS011;16437;41.836;23.480;2022-09-20T16:43:10;0.68;;;0.60;;
29478;SDS011;16437;41.836;23.480;2022-09-20T16:48:38;1.77;;;0.72;;
29478;SDS011;16437;41.836;23.480;2022-09-20T16:54:06;2.35;;;0.60;;
29478;SDS011;16437;41.836;23.480;2022-09-20T17:05:02;0.85;;;0.60;;
29478;SDS011;16437;41.836;23.480;2022-09-20T17:10:29;2.25;;;0.55;;
29478;SDS011;16437;41.836;23.480;2022-09-20T17:16:05;2.05;;;0.60;;
29478;SDS011;16437;41.836;23.480;2022-09-20T17:21:29;3.50;;;0.78;;
29478;SDS011;16437;41.836;23.480;2022-09-20T17:26:55;1.45;;;0.60;;
29478;SDS011;16437;41.836;23.480;2022-09-20T17:32:22;1.90;;;0.70;;
29478;SDS011;16437;41.836;23.480;2022-09-20T17:37:49;0.82;;;0.62;;
29478;SDS011;16437;41.836;23.480;2022-09-20T17:43:15;0.75;;;0.50;;
29478;SDS011;16437;41.836;23.480;2022-09-20T17:48:42;0.80;;;0.57;;
29478;SDS011;16437;41.836;23.480;2022-09-20T17:54:10;2.83;;;0.60;;
29478;SDS011;16437;41.836;23.480;2022-09-20T17:59:38;1.37;;;0.62;;
29478;SDS011;16437;41.836;23.480;2022-09-20T18:05:04;1.77;;;0.75;;
29478;SDS011;16437;41.836;23.480;2022-09-20T18:10:31;3.83;;;0.82;;
29478;SDS011;16437;41.836;23.480;2022-09-20T18:15:58;1.42;;;0.70;;
29478;SDS011;16437;41.836;23.480;2022-09-20T18:21:25;1.55;;;0.70;;
29478;SDS011;16437;41.836;23.480;2022-09-20T18:26:52;3.12;;;0.88;;
29478;SDS011;16437;41.836;23.480;2022-09-20T18:32:19;2.35;;;0.72;;
29478;SDS011;16437;41.836;23.480;2022-09-20T18:37:45;3.40;;;0.70;;
29478;SDS011;16437;41.836;23.480;2022-09-20T18:43:12;2.08;;;1.00;;
29478;SDS011;16437;41.836;23.480;2022-09-20T18:48:38;2.58;;;0.65;;
29478;SDS011;16437;41.836;23.480;2022-09-20T18:54:05;1.98;;;0.78;;
29478;SDS011;16437;41.836;23.480;2022-09-20T18:59:35;1.27;;;0.70;;
29478;SDS011;16437;41.836;23.480;2022-09-20T19:10:52;1.80;;;0.60;;
29478;SDS011;16437;41.836;23.480;2022-09-20T19:16:39;2.30;;;0.82;;
29478;SDS011;16437;41.836;23.480;2022-09-20T19:21:56;3.12;;;0.88;;
29478;SDS011;16437;41.836;23.480;2022-09-20T19:27:25;4.33;;;1.00;;
29478;SDS011;16437;41.836;23.480;2022-09-20T19:32:52;3.12;;;0.80;;
29478;SDS011;16437;41.836;23.480;2022-09-20T19:44:05;4.83;;;1.05;;
29478;SDS011;16437;41.836;23.480;2022-09-20T19:49:49;3.70;;;1.05;;
29478;SDS011;16437;41.836;23.480;2022-09-20T19:55:18;2.98;;;0.88;;
29478;SDS011;16437;41.836;23.480;2022-09-20T20:00:45;3.02;;;0.75;;
29478;SDS011;16437;41.836;23.480;2022-09-20T20:06:15;3.00;;;0.90;;
29478;SDS011;16437;41.836;23.480;2022-09-20T20:12:08;1.07;;;0.80;;
29478;SDS011;16437;41.836;23.480;2022-09-20T20:17:40;1.20;;;0.80;;
29478;SDS011;16437;41.836;23.480;2022-09-20T20:28:46;4.35;;;0.98;;
29478;SDS011;16437;41.836;23.480;2022-09-20T20:34:15;2.42;;;0.88;;
29478;SDS011;16437;41.836;23.480;2022-09-20T20:39:43;0.90;;;0.72;;
29478;SDS011;16437;41.836;23.480;2022-09-20T20:45:10;2.35;;;0.70;;
29478;SDS011;16437;41.836;23.480;2022-09-20T20:50:37;1.82;;;0.80;;
29478;SDS011;16437;41.836;23.480;2022-09-20T20:56:08;1.62;;;0.80;;
29478;SDS011;16437;41.836;23.480;2022-09-20T21:01:36;5.05;;;0.90;;
29478;SDS011;16437;41.836;23.480;2022-09-20T21:07:08;1.45;;;0.78;;
29478;SDS011;16437;41.836;23.480;2022-09-20T21:12:34;1.62;;;0.80;;
29478;SDS011;16437;41.836;23.480;2022-09-20T21:18:00;3.47;;;0.88;;
29478;SDS011;16437;41.836;23.480;2022-09-20T21:23:27;2.98;;;0.80;;
29478;SDS011;16437;41.836;23.480;2022-09-20T21:28:56;2.47;;;0.88;;
29478;SDS011;16437;41.836;23.480;2022-09-20T21:34:23;1.85;;;0.90;;
29478;SDS011;16437;41.836;23.480;2022-09-20T21:39:50;1.52;;;0.80;;
29478;SDS011;16437;41.836;23.480;2022-09-20T21:45:18;4.20;;;0.90;;
29478;SDS011;16437;41.836;23.480;2022-09-20T21:50:45;2.42;;;0.90;;
29478;SDS011;16437;41.836;23.480;2022-09-20T21:56:13;1.62;;;0.90;;
29478;SDS011;16437;41.836;23.480;2022-09-20T22:01:43;1.95;;;0.72;;
29478;SDS011;16437;41.836;23.480;2022-09-20T22:07:10;2.77;;;1.00;;
29478;SDS011;16437;41.836;23.480;2022-09-20T22:12:36;1.72;;;0.88;;
29478;SDS011;16437;41.836;23.480;2022-09-20T22:18:03;1.07;;;0.70;;
29478;SDS011;16437;41.836;23.480;2022-09-20T22:23:30;1.80;;;1.00;;
29478;SDS011;16437;41.836;23.480;2022-09-20T22:28:56;1.77;;;0.85;;
29478;SDS011;16437;41.836;23.480;2022-09-20T22:34:24;2.62;;;0.85;;
29478;SDS011;16437;41.836;23.480;2022-09-20T22:39:50;1.07;;;0.80;;
29478;SDS011;16437;41.836;23.480;2022-09-20T22:45:16;2.50;;;0.95;;
29478;SDS011;16437;41.836;23.480;2022-09-20T22:50:42;3.22;;;0.93;;
29478;SDS011;16437;41.836;23.480;2022-09-20T22:56:10;1.60;;;0.82;;
29478;SDS011;16437;41.836;23.480;2022-09-20T23:01:47;1.87;;;1.00;;
29478;SDS011;16437;41.836;23.480;2022-09-20T23:12:35;2.42;;;1.00;;
29478;SDS011;16437;41.836;23.480;2022-09-20T23:18:03;3.10;;;0.78;;
29478;SDS011;16437;41.836;23.480;2022-09-20T23:23:30;2.58;;;1.00;;
29478;SDS011;16437;41.836;23.480;2022-09-20T23:29:02;1.77;;;1.25;;
29478;SDS011;16437;41.836;23.480;2022-09-20T23:34:26;2.25;;;0.95;;
29478;SDS011;16437;41.836;23.480;2022-09-20T23:39:52;1.27;;;1.17;;
29478;SDS011;16437;41.836;23.480;2022-09-20T23:45:19;0.90;;;0.82;;
29478;SDS011;16437;41.836;23.480;2022-09-20T23:50:45;2.35;;;1.20;;
29478;SDS011;16437;41.836;23.480;2022-09-20T23:56:12;1.30;;;1.10;;
